Terminal Aerodrome Forecast
Issued by NWS

Home | Current Version | Previous Version | Text Only | Print | Product List | Glossary On
Versions: 1 2 3 4 5 6 7 8 9 10 11 12 13 14 15 16 17 18 19
000
FTUS43 KIND 271100
TAFHUF
TAF
KHUF 271123Z 2712/2812 32005KT P6SM SCT050
     FM271700 33006KT P6SM SCT035
     FM272300 02003KT P6SM BKN150
     FM280600 07003KT P6SM OVC080=

USA.gov is the U.S. government's official web portal to all federal, state and local government web resources and services.